Time;durP1;ratioP1;P1;durP2;ratioP2;P2;SDS_P1;SDS_P2;PMS_P1;PMS_P2;Temp;Humidity;BMP_temperature;BMP_pressure;BME280_temperature;BME280_humidity;BME280_pressure;Samples;Min_cycle;Max_cycle;Signal;HPM_P1;HPM_P2
2023/11/13 00:00:13;;;;;;;0.73;0.73;;;;;;;-144.99;100.00;67352.69;5052749;28;20266;-86
2023/11/13 00:02:40;;;;;;;1.83;1.10;;;;;;;-144.99;100.00;67352.69;5062359;28;20220;-86
2023/11/13 00:05:06;;;;;;;0.40;0.40;;;;;;;-144.99;100.00;67352.69;5072841;28;20179;-85
2023/11/13 00:07:31;;;;;;;0.70;0.70;;;;;;;-144.99;100.00;67352.69;5057005;28;20171;-86
2023/11/13 00:09:57;;;;;;;0.40;0.40;;;;;;;-144.99;100.00;67352.69;5056155;28;20456;-85
2023/11/13 00:12:22;;;;;;;1.20;1.20;;;;;;;-144.99;100.00;67352.69;5058341;28;20199;-86
2023/11/13 00:14:47;;;;;;;0.53;0.53;;;;;;;-144.99;100.00;67352.69;5059887;28;20702;-85
2023/11/13 00:17:13;;;;;;;0.17;0.10;;;;;;;-144.99;100.00;67352.69;5059754;28;20596;-86
2023/11/13 00:19:38;;;;;;;0.00;0.00;;;;;;;-144.99;100.00;67352.69;5059863;28;20248;-86
2023/11/13 00:22:04;;;;;;;0.37;0.37;;;;;;;-144.99;100.00;67352.69;5056829;28;20200;-86
2023/11/13 00:24:29;;;;;;;0.47;0.47;;;;;;;-144.99;100.00;67352.69;5055950;28;20175;-85
2023/11/13 00:26:54;;;;;;;0.50;0.40;;;;;;;-144.99;100.00;67352.69;5060841;28;21228;-85
2023/11/13 00:29:20;;;;;;;0.27;0.27;;;;;;;-144.99;100.00;67352.69;5052756;28;20171;-86
2023/11/13 00:31:45;;;;;;;0.50;0.50;;;;;;;-144.99;100.00;67352.69;5059542;28;20202;-86
2023/11/13 00:34:11;;;;;;;0.00;0.00;;;;;;;-144.99;100.00;67352.69;5052541;28;20175;-85
2023/11/13 00:36:36;;;;;;;0.90;0.90;;;;;;;-144.99;100.00;67352.69;5051147;28;20175;-85
2023/11/13 00:39:03;;;;;;;0.57;0.47;;;;;;;-144.99;100.00;67352.69;5052229;28;20241;-86
2023/11/13 00:41:32;;;;;;;2.57;1.33;;;;;;;-144.99;100.00;67352.69;5051008;28;20214;-85
2023/11/13 00:43:59;;;;;;;0.30;0.30;;;;;;;-144.99;100.00;67352.69;5051970;28;20246;-85
2023/11/13 00:46:25;;;;;;;0.00;0.00;;;;;;;-144.99;100.00;67352.69;5050545;28;20190;-85
2023/11/13 00:48:50;;;;;;;0.67;0.23;;;;;;;-144.99;100.00;67352.69;5062005;28;20660;-86
2023/11/13 00:51:15;;;;;;;0.00;0.00;;;;;;;-144.99;100.00;67352.69;5071148;28;20217;-85
2023/11/13 00:53:41;;;;;;;0.67;0.67;;;;;;;-144.99;100.00;67352.69;5065858;28;20185;-85
2023/11/13 00:56:07;;;;;;;0.50;0.50;;;;;;;-144.99;100.00;67352.69;5076690;28;20185;-85
2023/11/13 00:58:34;;;;;;;0.20;0.20;;;;;;;-144.99;100.00;67352.69;5059574;28;20206;-84
2023/11/13 01:01:01;;;;;;;0.60;0.43;;;;;;;-144.99;100.00;67352.69;5067451;28;20293;-86
2023/11/13 01:03:26;;;;;;;0.43;0.43;;;;;;;-144.99;100.00;67352.69;5068916;28;20179;-85
2023/11/13 01:05:52;;;;;;;2.20;2.00;;;;;;;-144.99;100.00;67352.69;5065748;28;20190;-86
2023/11/13 01:08:18;;;;;;;0.00;0.00;;;;;;;-144.99;100.00;67352.69;5061390;28;20198;-86
2023/11/13 01:10:43;;;;;;;5.20;1.27;;;;;;;-144.99;100.00;67352.69;5056172;28;20685;-84
2023/11/13 01:13:09;;;;;;;0.40;0.40;;;;;;;-144.99;100.00;67352.69;5076458;28;20175;-86
2023/11/13 01:15:34;;;;;;;0.17;0.17;;;;;;;-144.99;100.00;67352.69;5066504;28;20185;-86
2023/11/13 01:17:59;;;;;;;0.13;0.13;;;;;;;-144.99;100.00;67352.69;5059263;28;20237;-86
2023/11/13 01:20:25;;;;;;;0.30;0.30;;;;;;;-144.99;100.00;67352.69;5076247;28;20174;-85
2023/11/13 01:22:51;;;;;;;0.23;0.10;;;;;;;-144.99;100.00;67352.69;5055798;28;20183;-86
2023/11/13 01:25:16;;;;;;;0.63;0.63;;;;;;;-144.99;100.00;67352.69;5054310;28;20179;-86
2023/11/13 01:27:41;;;;;;;0.00;0.00;;;;;;;-144.99;100.00;67352.69;5072373;28;20190;-85
2023/11/13 01:30:08;;;;;;;0.73;0.73;;;;;;;-144.99;100.00;67352.69;5076506;28;20178;-86
2023/11/13 01:32:34;;;;;;;0.83;0.67;;;;;;;-144.99;100.00;67352.69;5066343;28;20194;-85
2023/11/13 01:34:59;;;;;;;0.33;0.33;;;;;;;-144.99;100.00;67352.69;5072919;28;20229;-86
2023/11/13 01:37:25;;;;;;;0.07;0.07;;;;;;;-144.99;100.00;67352.69;5064017;28;20199;-85
2023/11/13 01:39:51;;;;;;;0.80;0.80;;;;;;;-144.99;100.00;67352.69;5057579;28;20266;-85
2023/11/13 01:42:16;;;;;;;1.73;1.60;;;;;;;-144.99;100.00;67352.69;5060574;28;20227;-85
2023/11/13 01:44:42;;;;;;;0.10;0.10;;;;;;;-144.99;100.00;67352.69;5054228;28;20179;-85
2023/11/13 01:47:07;;;;;;;0.00;0.00;;;;;;;-144.99;100.00;67352.69;5059544;28;20189;-86
2023/11/13 01:49:33;;;;;;;0.00;0.00;;;;;;;-144.99;100.00;67352.69;5075237;28;20187;-84
2023/11/13 01:52:01;;;;;;;0.00;0.00;;;;;;;-144.99;100.00;67352.69;5095042;22;20226;-87
2023/11/13 01:54:26;;;;;;;0.77;0.63;;;;;;;-144.99;100.00;67352.69;5075056;28;20182;-87
2023/11/13 01:56:57;;;;;;;0.70;0.70;;;;;;;-144.99;100.00;67352.69;5072804;28;20182;-89
2023/11/13 01:59:25;;;;;;;0.93;0.93;;;;;;;-144.99;100.00;67352.69;5072922;28;20206;-90
2023/11/13 02:01:50;;;;;;;0.50;0.50;;;;;;;-144.99;100.00;67352.69;5072731;28;20245;-89
2023/11/13 02:04:19;;;;;;;1.90;1.80;;;;;;;-144.99;100.00;67352.69;5073501;28;20232;-89
2023/11/13 02:06:47;;;;;;;0.00;0.00;;;;;;;-144.99;100.00;67352.69;5074279;28;20700;-89
2023/11/13 02:09:13;;;;;;;0.00;0.00;;;;;;;-144.99;100.00;67352.69;5074717;28;20262;-87
2023/11/13 02:11:38;;;;;;;0.00;0.00;;;;;;;-144.99;100.00;67352.69;5073306;28;20647;-88
2023/11/13 02:14:05;;;;;;;0.00;0.00;;;;;;;-144.99;100.00;67352.69;5074421;28;20179;-87
2023/11/13 02:16:31;;;;;;;0.30;0.30;;;;;;;-144.99;100.00;67352.69;5073024;28;20182;-87
2023/11/13 02:18:56;;;;;;;0.47;0.47;;;;;;;-144.99;100.00;67352.69;5073346;28;20297;-86
2023/11/13 02:21:22;;;;;;;0.00;0.00;;;;;;;-144.99;100.00;67352.69;5073176;28;20212;-87
2023/11/13 02:23:51;;;;;;;0.00;0.00;;;;;;;-144.99;100.00;67352.69;5072966;28;20182;-87
2023/11/13 02:26:17;;;;;;;0.00;0.00;;;;;;;-144.99;100.00;67352.69;5074065;28;20182;-87
2023/11/13 02:28:43;;;;;;;1.10;1.00;;;;;;;-144.99;100.00;67352.69;5074130;28;20755;-87
2023/11/13 02:31:09;;;;;;;0.00;0.00;;;;;;;-144.99;100.00;67352.69;5072860;28;20206;-88
2023/11/13 02:33:35;;;;;;;0.00;0.00;;;;;;;-144.99;100.00;67352.69;5072827;28;20178;-86
2023/11/13 02:36:00;;;;;;;0.00;0.00;;;;;;;-144.99;100.00;67352.69;5072438;28;20550;-87
2023/11/13 02:38:26;;;;;;;0.00;0.00;;;;;;;-144.99;100.00;67352.69;5073880;28;20260;-87
2023/11/13 02:40:51;;;;;;;0.30;0.30;;;;;;;-144.99;100.00;67352.69;5072791;28;20194;-87
2023/11/13 02:43:17;;;;;;;0.00;0.00;;;;;;;-144.99;100.00;67352.69;5073797;28;20219;-87
2023/11/13 02:45:42;;;;;;;0.00;0.00;;;;;;;-144.99;100.00;67352.69;5072234;28;20186;-88
2023/11/13 02:48:08;;;;;;;0.00;0.00;;;;;;;-144.99;100.00;67352.69;5072418;28;20191;-86
2023/11/13 02:50:33;;;;;;;0.57;0.57;;;;;;;-144.99;100.00;67352.69;5072523;28;20205;-86
2023/11/13 02:52:58;;;;;;;0.00;0.00;;;;;;;-144.99;100.00;67352.69;5073572;28;20210;-86
2023/11/13 02:55:24;;;;;;;0.00;0.00;;;;;;;-144.99;100.00;67352.69;5073978;28;20519;-89
2023/11/13 02:57:52;;;;;;;0.20;0.20;;;;;;;-144.99;100.00;67352.69;5072243;28;20678;-87
2023/11/13 03:00:19;;;;;;;0.00;0.00;;;;;;;-144.99;100.00;67352.69;5072447;28;20640;-87
2023/11/13 03:02:44;;;;;;;0.00;0.00;;;;;;;-144.99;100.00;67352.69;5073271;28;20199;-87
2023/11/13 03:05:10;;;;;;;0.00;0.00;;;;;;;-144.99;100.00;67352.69;5072159;28;20193;-86
2023/11/13 03:07:35;;;;;;;0.00;0.00;;;;;;;-144.99;100.00;67352.69;5072434;28;20476;-88
2023/11/13 03:10:01;;;;;;;1.33;1.33;;;;;;;-144.99;100.00;67352.69;5072168;28;20178;-87
2023/11/13 03:12:27;;;;;;;2.60;2.47;;;;;;;-144.99;100.00;67352.69;5071296;28;20207;-87
2023/11/13 03:14:52;;;;;;;0.97;0.83;;;;;;;-144.99;100.00;67352.69;5073063;28;20190;-87
2023/11/13 03:17:21;;;;;;;0.43;0.43;;;;;;;-144.99;100.00;67352.69;5071953;28;20178;-87
2023/11/13 03:19:46;;;;;;;0.73;0.73;;;;;;;-144.99;100.00;67352.69;5071941;28;20231;-87
2023/11/13 03:22:11;;;;;;;1.70;1.60;;;;;;;-144.99;100.00;67352.69;5071876;28;20233;-87
2023/11/13 03:24:37;;;;;;;4.23;1.13;;;;;;;-144.99;100.00;67352.69;5073261;28;20182;-87
2023/11/13 03:27:03;;;;;;;0.97;0.73;;;;;;;-144.99;100.00;67352.69;5075222;28;20186;-86
2023/11/13 03:29:28;;;;;;;0.83;0.37;;;;;;;-144.99;100.00;67352.69;5074896;28;20185;-87
2023/11/13 03:31:53;;;;;;;6.80;0.87;;;;;;;-144.99;100.00;67352.69;5073731;28;20225;-88
2023/11/13 03:34:19;;;;;;;0.63;0.63;;;;;;;-144.99;100.00;67352.69;5074452;28;20663;-87
2023/11/13 03:36:45;;;;;;;1.23;1.13;;;;;;;-144.99;100.00;67352.69;5074168;28;20182;-87
2023/11/13 03:39:11;;;;;;;0.23;0.23;;;;;;;-144.99;100.00;67352.69;5073475;28;20210;-89
2023/11/13 03:41:37;;;;;;;0.83;0.80;;;;;;;-144.99;100.00;67352.69;5071261;28;20699;-89
2023/11/13 03:44:03;;;;;;;0.20;0.20;;;;;;;-144.99;100.00;67352.69;5071579;28;20213;-89
2023/11/13 03:46:29;;;;;;;0.40;0.40;;;;;;;-144.99;100.00;67352.69;5071294;28;20543;-89
2023/11/13 03:48:54;;;;;;;0.20;0.20;;;;;;;-144.99;100.00;67352.69;5071232;28;20204;-87
2023/11/13 03:51:24;;;;;;;0.20;0.17;;;;;;;-144.99;100.00;67352.69;5071449;28;20701;-89
2023/11/13 03:53:50;;;;;;;0.63;0.63;;;;;;;-144.99;100.00;67352.69;5071170;28;20200;-90
2023/11/13 03:56:19;;;;;;;1.20;1.20;;;;;;;-144.99;100.00;67352.69;5072071;28;20182;-91
2023/11/13 03:58:47;;;;;;;1.17;1.13;;;;;;;-144.99;100.00;67352.69;5070945;28;20668;-90
2023/11/13 04:01:16;;;;;;;4.70;0.53;;;;;;;-144.99;100.00;67352.69;5071324;28;20570;-90
2023/11/13 04:03:44;;;;;;;0.47;0.47;;;;;;;-144.99;100.00;67352.69;5070947;28;20193;-90
2023/11/13 04:06:10;;;;;;;2.53;1.43;;;;;;;-144.99;100.00;67352.69;5070894;28;20186;-90
2023/11/13 04:08:35;;;;;;;1.20;1.20;;;;;;;-144.99;100.00;67352.69;5070957;28;20627;-90
2023/11/13 04:11:04;;;;;;;0.17;0.17;;;;;;;-144.99;100.00;67352.69;5070981;28;20186;-90
2023/11/13 04:13:34;;;;;;;0.30;0.30;;;;;;;-144.99;100.00;67352.69;5070787;28;20220;-89
2023/11/13 04:16:03;;;;;;;1.07;0.97;;;;;;;-144.99;100.00;67352.69;5070651;28;20186;-90
2023/11/13 04:18:31;;;;;;;1.03;0.87;;;;;;;-144.99;100.00;67352.69;5070618;28;20202;-89
2023/11/13 04:20:57;;;;;;;0.73;0.70;;;;;;;-144.99;100.00;67352.69;5070675;28;20217;-89
2023/11/13 04:23:23;;;;;;;0.50;0.50;;;;;;;-144.99;100.00;67352.69;5070511;28;20233;-90
2023/11/13 04:25:52;;;;;;;0.90;0.90;;;;;;;-144.99;100.00;67352.69;5070340;28;20202;-89
2023/11/13 04:28:19;;;;;;;0.00;0.00;;;;;;;-144.99;100.00;67352.69;5070604;28;20667;-91
2023/11/13 04:30:45;;;;;;;0.20;0.20;;;;;;;-144.99;100.00;67352.69;5070625;28;20205;-89
2023/11/13 04:33:11;;;;;;;1.20;1.20;;;;;;;-144.99;100.00;67352.69;5070574;28;20682;-90
2023/11/13 04:35:36;;;;;;;0.77;0.20;;;;;;;-144.99;100.00;67352.69;5071509;28;20265;-90
2023/11/13 04:38:01;;;;;;;5.23;2.20;;;;;;;-144.99;100.00;67352.69;5070517;28;20267;-87
2023/11/13 04:40:27;;;;;;;1.97;1.37;;;;;;;-144.99;100.00;67352.69;5071912;28;20530;-87
2023/11/13 04:42:53;;;;;;;0.10;0.07;;;;;;;-144.99;100.00;67352.69;5070279;28;20257;-87
2023/11/13 04:45:18;;;;;;;0.23;0.23;;;;;;;-144.99;100.00;67352.69;5071499;28;20271;-87
2023/11/13 04:47:47;;;;;;;0.00;0.00;;;;;;;-144.99;100.00;67352.69;5070446;28;20174;-87
2023/11/13 04:50:12;;;;;;;1.03;1.03;;;;;;;-144.99;100.00;67352.69;5070604;28;20183;-88
2023/11/13 04:52:37;;;;;;;0.37;0.37;;;;;;;-144.99;100.00;67352.69;5071782;28;20641;-87
2023/11/13 04:55:03;;;;;;;1.63;1.17;;;;;;;-144.99;100.00;67352.69;5071596;28;20612;-88
2023/11/13 04:57:28;;;;;;;0.70;0.57;;;;;;;-144.99;100.00;67352.69;5070344;28;20743;-87
2023/11/13 04:59:54;;;;;;;2.10;1.90;;;;;;;-144.99;100.00;67352.69;5070401;28;20189;-90
2023/11/13 05:02:23;;;;;;;0.83;0.77;;;;;;;-144.99;100.00;67352.69;5070211;28;20625;-90
2023/11/13 05:04:51;;;;;;;0.67;0.67;;;;;;;-144.99;100.00;67352.69;5070185;28;20178;-91
2023/11/13 05:07:17;;;;;;;2.20;0.60;;;;;;;-144.99;100.00;67352.69;5070151;28;20198;-90
2023/11/13 05:09:42;;;;;;;0.73;0.73;;;;;;;-144.99;100.00;67352.69;5070361;28;20197;-90
2023/11/13 05:12:10;;;;;;;0.33;0.33;;;;;;;-144.99;100.00;67352.69;5070229;28;20680;-90
2023/11/13 05:14:39;;;;;;;0.00;0.00;;;;;;;-144.99;100.00;67352.69;5070067;28;20183;-90
2023/11/13 05:17:07;;;;;;;1.27;1.17;;;;;;;-144.99;100.00;67352.69;5070124;28;20665;-87
2023/11/13 05:19:33;;;;;;;0.57;0.57;;;;;;;-144.99;100.00;67352.69;5070178;28;20186;-87
2023/11/13 05:21:58;;;;;;;1.03;1.03;;;;;;;-144.99;100.00;67352.69;5071358;28;20202;-87
2023/11/13 05:24:23;;;;;;;0.00;0.00;;;;;;;-144.99;100.00;67352.69;5070193;28;20182;-87
2023/11/13 05:26:51;;;;;;;0.70;0.67;;;;;;;-144.99;100.00;67352.69;5070169;28;20561;-87
2023/11/13 05:29:16;;;;;;;0.93;0.90;;;;;;;-144.99;100.00;67352.69;5070225;28;20183;-88
2023/11/13 05:31:45;;;;;;;0.10;0.10;;;;;;;-144.99;100.00;67352.69;5070032;28;20293;-87
2023/11/13 05:34:10;;;;;;;0.77;0.77;;;;;;;-144.99;100.00;67352.69;5071683;28;20779;-88
2023/11/13 05:36:36;;;;;;;7.93;1.17;;;;;;;-144.99;100.00;67352.69;5073710;28;20189;-87
2023/11/13 05:39:06;;;;;;;0.73;0.73;;;;;;;-144.99;100.00;67352.69;5073861;28;20206;-88
2023/11/13 05:41:32;;;;;;;0.20;0.20;;;;;;;-144.99;100.00;67352.69;5073603;28;20202;-87
2023/11/13 05:44:00;;;;;;;0.00;0.00;;;;;;;-144.99;100.00;67352.69;5075175;28;20221;-87
2023/11/13 05:46:26;;;;;;;0.00;0.00;;;;;;;-144.99;100.00;67352.69;5073553;28;20182;-88
2023/11/13 05:48:51;;;;;;;0.00;0.00;;;;;;;-144.99;100.00;67352.69;5074805;28;20238;-87
2023/11/13 05:51:18;;;;;;;0.00;0.00;;;;;;;-144.99;100.00;67352.69;5073715;28;20295;-88
2023/11/13 05:53:44;;;;;;;0.00;0.00;;;;;;;-144.99;100.00;67352.69;5073450;28;20664;-88
2023/11/13 05:56:10;;;;;;;0.00;0.00;;;;;;;-144.99;100.00;67352.69;5073297;28;20194;-88
2023/11/13 05:58:35;;;;;;;0.00;0.00;;;;;;;-144.99;100.00;67352.69;5073457;28;20632;-88
2023/11/13 06:01:02;;;;;;;0.00;0.00;;;;;;;-144.99;100.00;67352.69;5073427;28;20194;-88
2023/11/13 06:03:27;;;;;;;1.70;1.60;;;;;;;-144.99;100.00;67352.69;5073635;28;20201;-88
2023/11/13 06:05:52;;;;;;;0.67;0.67;;;;;;;-144.99;100.00;67352.69;5073414;28;20560;-90
2023/11/13 06:08:18;;;;;;;0.73;0.73;;;;;;;-144.99;100.00;67352.69;5073745;28;20265;-88
2023/11/13 06:10:43;;;;;;;1.10;0.90;;;;;;;-144.99;100.00;67352.69;5075012;28;20601;-88
2023/11/13 06:13:08;;;;;;;2.60;0.60;;;;;;;-144.99;100.00;67352.69;5073638;28;20202;-87
2023/11/13 06:15:37;;;;;;;0.93;0.93;;;;;;;-144.99;100.00;67352.69;5073249;28;20182;-87
2023/11/13 06:18:02;;;;;;;0.47;0.47;;;;;;;-144.99;100.00;67352.69;5073552;28;20301;-87
2023/11/13 06:20:28;;;;;;;20.27;1.83;;;;;;;-144.99;100.00;67352.69;5073429;28;20656;-87
2023/11/13 06:22:53;;;;;;;0.07;0.07;;;;;;;-144.99;100.00;67352.69;5074453;28;20224;-87
2023/11/13 06:25:18;;;;;;;0.90;0.90;;;;;;;-144.99;100.00;67352.69;5073088;28;20194;-88
2023/11/13 06:27:44;;;;;;;1.40;1.30;;;;;;;-144.99;100.00;67352.69;5073174;28;20265;-87
2023/11/13 06:30:09;;;;;;;0.00;0.00;;;;;;;-144.99;100.00;67352.69;5074356;28;20189;-87
2023/11/13 06:32:43;;;;;;;1.03;1.03;;;;;;;-144.99;100.00;67352.69;5073170;28;20206;-87
2023/11/13 06:35:08;;;;;;;0.10;0.10;;;;;;;-144.99;100.00;67352.69;5065889;28;20182;-88
2023/11/13 06:37:34;;;;;;;3.17;2.90;;;;;;;-144.99;100.00;67352.69;5073297;28;20619;-87
2023/11/13 06:39:59;;;;;;;0.53;0.23;;;;;;;-144.99;100.00;67352.69;5072952;28;20723;-87
2023/11/13 06:42:24;;;;;;;0.27;0.27;;;;;;;-144.99;100.00;67352.69;5073098;28;20217;-86
2023/11/13 06:44:50;;;;;;;3.27;2.63;;;;;;;-144.99;100.00;67352.69;5074140;28;20567;-87
2023/11/13 06:47:16;;;;;;;0.30;0.30;;;;;;;-144.99;100.00;67352.69;5071524;28;20193;-87
2023/11/13 06:49:41;;;;;;;0.07;0.07;;;;;;;-144.99;100.00;67352.69;5072642;28;20683;-87
2023/11/13 06:52:08;;;;;;;4.03;2.47;;;;;;;-144.99;100.00;67352.69;5073750;28;20214;-88
2023/11/13 06:54:33;;;;;;;0.30;0.30;;;;;;;-144.99;100.00;67352.69;5072627;28;20194;-88
2023/11/13 06:56:59;;;;;;;0.57;0.57;;;;;;;-144.99;100.00;67352.69;5073421;28;20186;-88
2023/11/13 06:59:25;;;;;;;0.00;0.00;;;;;;;-144.99;100.00;67352.69;5072449;28;20220;-88
2023/11/13 07:01:52;;;;;;;5.63;3.50;;;;;;;-144.99;100.00;67352.69;5072114;28;20210;-88
2023/11/13 07:04:17;;;;;;;10.00;2.63;;;;;;;-144.99;100.00;67352.69;5072368;28;20187;-88
2023/11/13 07:06:44;;;;;;;0.03;0.03;;;;;;;-144.99;100.00;67352.69;5073575;28;20182;-88
2023/11/13 07:09:13;;;;;;;1.03;1.03;;;;;;;-144.99;100.00;67352.69;5072616;28;20189;-87
2023/11/13 07:11:42;;;;;;;2.27;2.07;;;;;;;-144.99;100.00;67352.69;5072286;28;20214;-87
2023/11/13 07:14:11;;;;;;;1.10;0.87;;;;;;;-144.99;100.00;67352.69;5072816;28;20186;-89
2023/11/13 07:16:37;;;;;;;0.37;0.37;;;;;;;-144.99;100.00;67352.69;5072075;28;20190;-88
2023/11/13 07:19:05;;;;;;;1.47;1.13;;;;;;;-144.99;100.00;67352.69;5072125;28;20218;-87
2023/11/13 07:21:31;;;;;;;0.00;0.00;;;;;;;-144.99;100.00;67352.69;5072317;28;20214;-88
2023/11/13 07:23:58;;;;;;;0.30;0.30;;;;;;;-144.99;100.00;67352.69;5084730;28;20197;-88
2023/11/13 07:26:23;;;;;;;0.00;0.00;;;;;;;-144.99;100.00;67352.69;5086272;28;20190;-89
2023/11/13 07:28:49;;;;;;;0.10;0.10;;;;;;;-144.99;100.00;67352.69;5087222;28;20311;-89
2023/11/13 07:31:14;;;;;;;0.23;0.23;;;;;;;-144.99;100.00;67352.69;5084231;28;20267;-87
2023/11/13 07:33:39;;;;;;;0.57;0.57;;;;;;;-144.99;100.00;67352.69;5072288;28;20194;-87
2023/11/13 07:36:05;;;;;;;0.00;0.00;;;;;;;-144.99;100.00;67352.69;5071562;28;20182;-88
2023/11/13 07:38:31;;;;;;;0.63;0.63;;;;;;;-144.99;100.00;67352.69;5071650;28;20205;-88
2023/11/13 07:40:57;;;;;;;0.00;0.00;;;;;;;-144.99;100.00;67352.69;5072813;28;20273;-87
2023/11/13 07:43:23;;;;;;;0.87;0.87;;;;;;;-144.99;100.00;67352.69;5071654;28;20178;-88
2023/11/13 07:45:50;;;;;;;0.20;0.20;;;;;;;-144.99;100.00;67352.69;5071052;28;20231;-88
2023/11/13 07:48:16;;;;;;;0.00;0.00;;;;;;;-144.99;100.00;67352.69;5071751;28;20388;-88
2023/11/13 07:50:42;;;;;;;0.03;0.03;;;;;;;-144.99;100.00;67352.69;5071533;28;20178;-87
2023/11/13 07:53:08;;;;;;;0.00;0.00;;;;;;;-144.99;100.00;67352.69;5084137;22;20238;-76
2023/11/13 07:55:33;;;;;;;0.00;0.00;;;;;;;-144.99;100.00;67352.69;5052224;28;20210;-76
2023/11/13 07:57:59;;;;;;;0.10;0.10;;;;;;;-144.99;100.00;67352.69;5051894;28;20206;-76
2023/11/13 08:00:24;;;;;;;0.00;0.00;;;;;;;-144.99;100.00;67352.69;5052626;28;20215;-76
2023/11/13 08:02:50;;;;;;;0.13;0.13;;;;;;;-144.99;100.00;67352.69;5052282;28;20179;-76
2023/11/13 08:05:16;;;;;;;0.00;0.00;;;;;;;-144.99;100.00;67352.69;5052075;28;20209;-76
2023/11/13 08:07:43;;;;;;;0.00;0.00;;;;;;;-144.99;100.00;67352.69;5052166;28;20229;-76
2023/11/13 08:10:13;;;;;;;0.50;0.50;;;;;;;-144.99;100.00;67352.69;5051141;28;20278;-76
2023/11/13 08:12:49;;;;;;;1.43;1.33;;;;;;;-144.99;100.00;67352.69;5051970;28;20713;-76
2023/11/13 08:15:15;;;;;;;0.00;0.00;;;;;;;-144.99;100.00;67352.69;5051872;28;20202;-76
2023/11/13 08:17:42;;;;;;;0.00;0.00;;;;;;;-144.99;100.00;67352.69;5051992;28;20729;-76
2023/11/13 08:20:09;;;;;;;2.77;2.67;;;;;;;-144.99;100.00;67352.69;5050825;28;20190;-76
2023/11/13 08:22:35;;;;;;;0.00;0.00;;;;;;;-144.99;100.00;67352.69;5052001;28;20266;-76
2023/11/13 08:25:04;;;;;;;0.43;0.40;;;;;;;-144.99;100.00;67352.69;5051737;28;20234;-76
2023/11/13 08:27:30;;;;;;;0.83;0.83;;;;;;;-144.99;100.00;67352.69;5051811;28;20198;-76
2023/11/13 08:29:55;;;;;;;0.00;0.00;;;;;;;-144.99;100.00;67352.69;5051966;28;20636;-76
2023/11/13 08:32:21;;;;;;;1.13;0.93;;;;;;;-144.99;100.00;67352.69;5050632;28;20221;-76
2023/11/13 08:34:47;;;;;;;1.33;1.27;;;;;;;-144.99;100.00;67352.69;5051723;28;20677;-76
2023/11/13 08:37:13;;;;;;;2.17;1.83;;;;;;;-144.99;100.00;67352.69;5051752;28;20201;-76
2023/11/13 08:39:38;;;;;;;2.37;2.17;;;;;;;-144.99;100.00;67352.69;5051635;28;20687;-76
2023/11/13 08:42:06;;;;;;;0.20;0.20;;;;;;;-144.99;100.00;67352.69;5051837;28;20582;-76
2023/11/13 08:44:31;;;;;;;3.70;3.37;;;;;;;-144.99;100.00;67352.69;5051669;28;20205;-76
2023/11/13 08:46:57;;;;;;;3.90;3.50;;;;;;;-144.99;100.00;67352.69;5051474;28;20219;-76
2023/11/13 08:49:22;;;;;;;1.30;1.20;;;;;;;-144.99;100.00;67352.69;5050363;28;20183;-76
2023/11/13 08:51:47;;;;;;;0.40;0.40;;;;;;;-144.99;100.00;67352.69;5051524;28;20266;-76
2023/11/13 08:54:13;;;;;;;2.70;2.50;;;;;;;-144.99;100.00;67352.69;5051682;28;20608;-76
2023/11/13 08:56:38;;;;;;;0.70;0.70;;;;;;;-144.99;100.00;67352.69;5051201;28;20210;-76
2023/11/13 08:59:03;;;;;;;1.43;1.33;;;;;;;-144.99;100.00;67352.69;5051582;28;20210;-76
2023/11/13 09:01:30;;;;;;;3.87;0.97;;;;;;;-144.99;100.00;67352.69;5051576;28;20266;-76
2023/11/13 09:03:59;;;;;;;0.47;0.47;;;;;;;-144.99;100.00;67352.69;5051504;28;20268;-76
2023/11/13 09:06:25;;;;;;;1.07;0.97;;;;;;;-144.99;100.00;67352.69;5051242;28;20199;-76
2023/11/13 09:08:53;;;;;;;2.13;1.57;;;;;;;-144.99;100.00;67352.69;5051457;28;20257;-76
2023/11/13 09:11:19;;;;;;;0.60;0.60;;;;;;;-144.99;100.00;67352.69;5054836;28;20194;-76
2023/11/13 09:13:46;;;;;;;0.53;0.53;;;;;;;-144.99;100.00;67352.69;5055669;28;20210;-76
2023/11/13 09:16:14;;;;;;;1.53;1.43;;;;;;;-144.99;100.00;67352.69;5055124;28;20198;-76
2023/11/13 09:18:40;;;;;;;0.50;0.50;;;;;;;-144.99;100.00;67352.69;5055338;28;20201;-76
2023/11/13 09:21:05;;;;;;;5.90;1.83;;;;;;;-144.99;100.00;67352.69;5055564;28;20186;-76
2023/11/13 09:23:31;;;;;;;0.83;0.83;;;;;;;-144.99;100.00;67352.69;5055184;28;20568;-76
2023/11/13 09:25:56;;;;;;;0.77;0.77;;;;;;;-144.99;100.00;67352.69;5054998;28;20293;-76
2023/11/13 09:28:22;;;;;;;0.83;0.83;;;;;;;-144.99;100.00;67352.69;5055486;28;20208;-76
2023/11/13 09:30:47;;;;;;;2.00;1.83;;;;;;;-144.99;100.00;67352.69;5055213;28;20276;-76
2023/11/13 09:33:13;;;;;;;0.50;0.50;;;;;;;-144.99;100.00;67352.69;5055154;28;20211;-76
2023/11/13 09:35:38;;;;;;;0.10;0.10;;;;;;;-144.99;100.00;67352.69;5054720;28;20241;-76
2023/11/13 09:38:03;;;;;;;4.20;1.77;;;;;;;-144.99;100.00;67352.69;5054917;28;20245;-76
2023/11/13 09:40:34;;;;;;;0.00;0.00;;;;;;;-144.99;100.00;67352.69;5055105;28;20651;-76
2023/11/13 09:43:07;;;;;;;2.23;2.07;;;;;;;-144.99;100.00;67352.69;5054963;28;20175;-75
2023/11/13 09:45:36;;;;;;;0.17;0.17;;;;;;;-144.99;100.00;67352.69;5054705;28;20245;-76
2023/11/13 09:48:05;;;;;;;1.67;1.53;;;;;;;-144.99;100.00;67352.69;5053631;28;20262;-76
2023/11/13 09:50:32;;;;;;;0.00;0.00;;;;;;;-144.99;100.00;67352.69;5053482;28;20186;-76
2023/11/13 09:52:59;;;;;;;0.00;0.00;;;;;;;-144.99;100.00;67352.69;5054652;28;20191;-76
2023/11/13 09:55:26;;;;;;;0.00;0.00;;;;;;;-144.99;100.00;67352.69;5054507;28;20206;-76
2023/11/13 09:57:52;;;;;;;2.53;2.43;;;;;;;-144.99;100.00;67352.69;5054677;28;20187;-76
2023/11/13 10:00:20;;;;;;;0.27;0.27;;;;;;;-144.99;100.00;67352.69;5054736;28;20227;-76
2023/11/13 10:02:47;;;;;;;4.27;1.13;;;;;;;-144.99;100.00;67352.69;5053327;28;20207;-76
2023/11/13 10:05:15;;;;;;;0.00;0.00;;;;;;;-144.99;100.00;67352.69;5054199;28;20675;-76
2023/11/13 10:07:53;;;;;;;0.20;0.20;;;;;;;-144.99;100.00;67352.69;5054528;28;20190;-76
2023/11/13 10:10:23;;;;;;;0.67;0.53;;;;;;;-144.99;100.00;67352.69;5054605;28;20187;-75
2023/11/13 10:12:53;;;;;;;2.80;2.60;;;;;;;-144.99;100.00;67352.69;5054333;28;20185;-76
2023/11/13 10:15:27;;;;;;;1.47;1.37;;;;;;;-144.99;100.00;67352.69;5054162;28;20198;-76
2023/11/13 10:17:56;;;;;;;0.00;0.00;;;;;;;-144.99;100.00;67352.69;5053036;28;20206;-76
2023/11/13 10:20:22;;;;;;;0.00;0.00;;;;;;;-144.99;100.00;67352.69;5054184;28;20186;-76
2023/11/13 10:22:58;;;;;;;0.00;0.00;;;;;;;-144.99;100.00;67352.69;5054233;28;20187;-76
2023/11/13 10:25:26;;;;;;;0.40;0.40;;;;;;;-144.99;100.00;67352.69;5053969;28;20195;-76
2023/11/13 10:28:00;;;;;;;0.20;0.20;;;;;;;-144.99;100.00;67352.69;5054140;28;20179;-76
2023/11/13 10:30:27;;;;;;;2.20;1.93;;;;;;;-144.99;100.00;67352.69;5054127;28;20179;-76
2023/11/13 10:32:53;;;;;;;0.00;0.00;;;;;;;-144.99;100.00;67352.69;5054017;28;20175;-76
2023/11/13 10:35:35;;;;;;;0.00;0.00;;;;;;;-144.99;100.00;67352.69;5053680;28;20206;-76
2023/11/13 10:38:03;;;;;;;4.67;3.90;;;;;;;-144.99;100.00;67352.69;5054020;28;20282;-76
2023/11/13 10:40:29;;;;;;;1.60;1.23;;;;;;;-144.99;100.00;67352.69;5053857;28;20274;-76
2023/11/13 10:42:55;;;;;;;0.43;0.43;;;;;;;-144.99;100.00;67352.69;5053744;28;20639;-76
2023/11/13 10:45:21;;;;;;;2.77;2.37;;;;;;;-144.99;100.00;67352.69;5053559;28;20282;-76
2023/11/13 10:47:49;;;;;;;4.80;4.33;;;;;;;-144.99;100.00;67352.69;5053738;28;20183;-76
2023/11/13 10:50:19;;;;;;;1.87;1.77;;;;;;;-144.99;100.00;67352.69;5053846;28;20175;-76
2023/11/13 10:52:49;;;;;;;2.47;2.27;;;;;;;-144.99;100.00;67352.69;5053504;28;20194;-76
2023/11/13 10:55:16;;;;;;;2.23;2.07;;;;;;;-144.99;100.00;67352.69;5053217;28;20227;-76
2023/11/13 10:57:43;;;;;;;3.80;3.50;;;;;;;-144.99;100.00;67352.69;5052265;28;20711;-76
2023/11/13 11:00:12;;;;;;;1.33;1.23;;;;;;;-144.99;100.00;67352.69;5053543;28;20179;-76
2023/11/13 11:02:50;;;;;;;0.30;0.30;;;;;;;-144.99;100.00;67352.69;5053432;28;20187;-76
2023/11/13 11:05:22;;;;;;;3.03;2.37;;;;;;;-144.99;100.00;67352.69;5053168;28;20679;-76